createdAt,value
2023-02-09T00:03:00.130Z,36.7
2023-02-09T00:13:00.284Z,36.8
2023-02-09T00:18:00.166Z,36.8
2023-02-09T00:38:00.149Z,36.8
2023-02-09T00:48:00.122Z,37
2023-02-09T00:53:00.127Z,36.9
2023-02-09T01:03:00.150Z,37
2023-02-09T01:13:00.108Z,37
2023-02-09T01:23:00.132Z,36.8
2023-02-09T01:28:00.183Z,36.9
2023-02-09T01:38:00.129Z,37
2023-02-09T01:58:00.143Z,37
2023-02-09T02:03:00.126Z,37
2023-02-09T02:13:00.115Z,37.6
2023-02-09T02:18:00.166Z,37.1
2023-02-09T02:28:00.205Z,37
2023-02-09T02:38:00.138Z,37
2023-02-09T02:43:00.106Z,37
2023-02-09T02:53:00.132Z,37
2023-02-09T02:58:00.141Z,37.2
2023-02-09T03:18:00.144Z,37
2023-02-09T03:23:00.125Z,37
2023-02-09T03:33:00.122Z,37
2023-02-09T03:38:00.165Z,37
2023-02-09T03:48:00.152Z,37
2023-02-09T03:58:00.168Z,37.6
2023-02-09T04:08:00.141Z,37.1
2023-02-09T04:13:00.122Z,37
2023-02-09T04:33:00.151Z,37
2023-02-09T04:43:00.133Z,36.8
2023-02-09T04:48:00.126Z,36.9
2023-02-09T04:58:00.174Z,36.9
2023-02-09T05:08:00.140Z,36.9
2023-02-09T05:13:00.128Z,36.9
2023-02-09T05:18:00.156Z,36.7
2023-02-09T05:23:00.270Z,36.8
2023-02-09T05:33:00.143Z,37.4
2023-02-09T05:53:00.167Z,36.7
2023-02-09T05:58:00.150Z,36.6
2023-02-09T06:08:00.145Z,36.7
2023-02-09T06:13:00.153Z,36.8
2023-02-09T06:18:00.232Z,36.7
2023-02-09T06:28:00.261Z,36.6
2023-02-09T06:38:00.193Z,36.8
2023-02-09T06:48:00.155Z,36.6
2023-02-09T07:13:00.191Z,36.7
2023-02-09T07:18:00.160Z,36.7
2023-02-09T07:23:00.184Z,36.7
2023-02-09T07:33:00.265Z,36.7
2023-02-09T07:43:00.368Z,36.5
2023-02-09T07:48:00.466Z,36.5
2023-02-09T07:58:00.187Z,36.6
2023-02-09T08:08:00.303Z,36.5
2023-02-09T08:28:00.295Z,36.7
2023-02-09T08:38:00.178Z,36.7
2023-02-09T08:48:00.204Z,36.6
2023-02-09T08:58:00.180Z,36.5
2023-02-09T09:03:00.193Z,36.6
2023-02-09T09:13:00.214Z,36.9
2023-02-09T09:18:00.182Z,36.8
2023-02-09T09:28:00.289Z,36.9
2023-02-09T09:48:00.221Z,37
2023-02-09T09:53:00.198Z,37
2023-02-09T10:03:00.188Z,37.1
2023-02-09T10:13:00.213Z,37.3
2023-02-09T10:18:00.331Z,37.2
2023-02-09T10:28:00.216Z,37.3
2023-02-09T10:33:00.243Z,37.4
2023-02-09T10:43:00.238Z,37.6
2023-02-09T11:08:00.265Z,38.1
2023-02-09T11:18:00.207Z,38.1
2023-02-09T11:28:00.267Z,38.2
2023-02-09T11:33:00.212Z,38
2023-02-09T11:38:00.213Z,38
2023-02-09T11:48:00.255Z,38
2023-02-09T11:53:00.212Z,37.8
2023-02-09T11:58:00.213Z,38.5
2023-02-09T12:08:00.233Z,37.9
2023-02-09T12:23:00.209Z,37.7
2023-02-09T12:28:00.244Z,37.7
2023-02-09T12:38:00.213Z,37.6
2023-02-09T12:43:00.214Z,37.7
2023-02-09T12:53:00.471Z,37.5
2023-02-09T13:03:00.220Z,37.9
2023-02-09T13:13:00.286Z,37.6
2023-02-09T13:23:00.229Z,37.6
2023-02-09T13:43:00.256Z,37.6
2023-02-09T13:53:00.257Z,37.6
2023-02-09T14:03:00.371Z,37.6
2023-02-09T14:08:00.230Z,37.6
2023-02-09T14:13:00.234Z,37.7
2023-02-09T14:18:00.239Z,37.8
2023-02-09T14:28:00.300Z,38.5
2023-02-09T14:33:00.232Z,37.9
2023-02-09T14:43:00.227Z,37.9
2023-02-09T15:03:00.593Z,37.9
2023-02-09T15:13:00.238Z,37.9
2023-02-09T15:23:00.284Z,38
2023-02-09T15:33:00.236Z,38.1
2023-02-09T15:38:00.234Z,38
2023-02-09T15:48:00.253Z,38.8
2023-02-09T15:58:00.237Z,38.1
2023-02-09T16:03:00.440Z,38.2
2023-02-09T16:18:00.257Z,38.2
2023-02-09T16:23:06.294Z,38.6
2023-02-09T16:28:00.383Z,38.4
2023-02-09T16:38:00.288Z,38.5
2023-02-09T16:48:00.300Z,39
2023-02-09T16:53:00.244Z,38.8
2023-02-09T16:58:00.278Z,38.9
2023-02-09T17:08:00.243Z,38.7
2023-02-09T17:13:00.246Z,38.6
2023-02-09T17:43:00.267Z,38.6
2023-02-09T17:53:00.258Z,38.9
2023-02-09T18:03:00.364Z,38.8
2023-02-09T18:08:00.249Z,38.7
2023-02-09T18:18:00.252Z,38.9
2023-02-09T18:23:00.280Z,38.9
2023-02-09T18:33:00.249Z,39.3
2023-02-09T18:43:00.276Z,39
2023-02-09T19:03:00.416Z,39.1
2023-02-09T19:13:00.312Z,39.1
2023-02-09T19:18:00.286Z,39.1
2023-02-09T19:23:00.402Z,38.9
2023-02-09T19:33:00.302Z,39
2023-02-09T19:38:00.278Z,39
2023-02-09T19:43:00.347Z,38.9
2023-02-09T19:53:00.293Z,38.9
2023-02-09T20:03:00.427Z,38.8
2023-02-09T20:18:00.282Z,38.7
2023-02-09T20:23:00.307Z,38.9
2023-02-09T20:33:00.291Z,38.8
2023-02-09T20:38:00.282Z,38.8
2023-02-09T20:48:00.317Z,39.3
2023-02-09T20:53:00.290Z,39.2
2023-02-09T20:58:00.308Z,39.4
2023-02-09T21:08:00.350Z,39.5
2023-02-09T21:18:00.290Z,39.6
2023-02-09T21:38:00.311Z,40
2023-02-09T21:48:00.282Z,40.5
2023-02-09T21:53:00.281Z,40.6
2023-02-09T22:03:00.399Z,41.1
2023-02-09T22:13:00.292Z,41.3
2023-02-09T22:23:00.300Z,41.2
2023-02-09T22:28:00.358Z,41.3
2023-02-09T22:38:00.289Z,41.5
2023-02-09T22:58:00.322Z,41.3
2023-02-09T23:08:00.311Z,41.3
2023-02-09T23:13:00.302Z,41.5
2023-02-09T23:23:00.339Z,41.8
2023-02-09T23:28:00.362Z,41.9
2023-02-09T23:33:00.621Z,42.1
2023-02-09T23:38:00.329Z,42.2
2023-02-09T23:48:00.446Z,42.5
